Time;durP1;ratioP1;P1;durP2;ratioP2;P2;SDS_P1;SDS_P2;PMS_P1;PMS_P2;Temp;Humidity;BMP_temperature;BMP_pressure;BME280_temperature;BME280_humidity;BME280_pressure;Samples;Min_cycle;Max_cycle;Signal;HPM_P1;HPM_P2
2021/07/16 04:30:08;;;;;;;3.30;3.10;;;21.00;45.40;;;;;;5617090;23;20500;-78
2021/07/16 04:32:33;;;;;;;3.27;3.10;;;20.90;45.20;;;;;;4843778;29;20446;-78
2021/07/16 04:34:59;;;;;;;3.13;2.87;;;20.90;45.60;;;;;;4845192;29;20491;-79
2021/07/16 04:37:36;;;;;;;3.00;2.80;;;21.00;45.70;;;;;;4844144;29;20211;-78
2021/07/16 04:40:07;;;;;;;3.00;2.90;;;21.00;45.80;;;;;;4829867;29;20464;-79
2021/07/16 04:42:37;;;;;;;3.50;3.30;;;21.00;45.70;;;;;;4842198;29;20457;-78
2021/07/16 04:45:03;;;;;;;2.93;2.83;;;21.00;46.10;;;;;;4843825;29;20478;-78
2021/07/16 04:47:32;;;;;;;4.10;3.80;;;21.00;46.10;;;;;;4844271;29;20448;-78
2021/07/16 04:50:03;;;;;;;3.40;3.10;;;21.10;46.40;;;;;;4844304;29;20448;-78
2021/07/16 04:52:29;;;;;;;7.30;3.30;;;21.10;46.40;;;;;;4844258;29;20432;-78
2021/07/16 04:54:55;;;;;;;4.83;3.93;;;21.00;46.10;;;;;;4843367;29;20428;-78
2021/07/16 04:57:21;;;;;;;3.27;2.97;;;21.10;46.20;;;;;;4843448;29;20211;-78
2021/07/16 04:59:50;;;;;;;4.40;3.93;;;21.10;46.30;;;;;;4844398;29;20424;-79
2021/07/16 05:02:15;;;;;;;3.60;3.30;;;21.10;46.40;;;;;;4844685;29;20183;-78
2021/07/16 05:04:46;;;;;;;3.70;3.50;;;21.10;46.20;;;;;;4847175;29;20412;-78
2021/07/16 05:07:15;;;;;;;3.50;3.40;;;21.00;46.10;;;;;;4843612;29;20214;-79
2021/07/16 05:09:43;;;;;;;3.90;3.60;;;21.00;46.40;;;;;;4825392;29;20534;-78
2021/07/16 05:12:14;;;;;;;3.10;2.90;;;21.10;46.50;;;;;;4826491;29;20440;-78
2021/07/16 05:14:42;;;;;;;3.33;3.13;;;21.00;46.20;;;;;;4826093;29;20423;-78
2021/07/16 05:17:11;;;;;;;3.87;2.70;;;21.00;46.40;;;;;;4825132;29;20438;-78
2021/07/16 05:19:36;;;;;;;3.20;3.00;;;21.00;46.20;;;;;;4826328;29;20455;-78
2021/07/16 05:22:02;;;;;;;6.43;4.47;;;21.10;46.20;;;;;;4825969;29;20511;-78
2021/07/16 05:24:30;;;;;;;5.80;3.57;;;21.10;46.30;;;;;;4824746;29;20180;-78
2021/07/16 05:26:56;;;;;;;3.40;3.20;;;21.10;46.30;;;;;;4824637;29;21012;-78
2021/07/16 05:29:22;;;;;;;3.30;3.20;;;21.10;46.20;;;;;;4826428;29;20421;-79
2021/07/16 05:31:48;;;;;;;3.67;3.47;;;21.00;46.30;;;;;;4824869;29;20260;-78
2021/07/16 05:34:16;;;;;;;3.80;3.60;;;21.00;46.30;;;;;;4825231;29;20184;-78
2021/07/16 05:36:42;;;;;;;3.70;3.50;;;21.00;46.30;;;;;;4824373;29;20444;-78
2021/07/16 05:39:08;;;;;;;3.90;3.50;;;21.00;46.30;;;;;;4824817;29;20422;-78
2021/07/16 05:41:35;;;;;;;4.30;3.90;;;21.00;46.40;;;;;;4824605;29;20429;-78
2021/07/16 05:44:56;;;;;;;4.57;3.97;;;21.00;46.50;;;;;;4823888;29;20469;-78
2021/07/16 05:48:10;;;;;;;4.23;3.90;;;21.00;46.50;;;;;;4821240;29;20538;-80
2021/07/16 05:51:19;;;;;;;4.70;4.40;;;21.00;46.50;;;;;;4824237;29;20432;-81
2021/07/16 05:53:53;;;;;;;4.43;4.23;;;21.00;46.90;;;;;;4825057;29;20433;-80
2021/07/16 05:56:20;;;;;;;4.20;4.00;;;21.00;46.70;;;;;;4825286;29;20462;-81
2021/07/16 05:59:42;;;;;;;4.90;4.60;;;21.00;46.60;;;;;;4823344;29;20867;-80
2021/07/16 06:02:48;;;;;;;4.80;4.00;;;21.00;47.00;;;;;;4821376;29;20421;-80
2021/07/16 06:05:16;;;;;;;5.87;5.20;;;21.00;47.00;;;;;;4822165;29;20882;-79
2021/07/16 06:07:44;;;;;;;5.03;4.20;;;21.00;47.10;;;;;;4792323;29;20466;-82
2021/07/16 06:17:27;;;;;;;4.93;4.73;;;21.00;46.90;;;;;;4805789;29;20481;-82
2021/07/16 06:19:54;;;;;;;6.30;5.57;;;21.10;47.00;;;;;;4789807;29;20529;-81
2021/07/16 06:22:50;;;;;;;5.53;5.03;;;21.10;47.00;;;;;;4808449;29;20434;-81
2021/07/16 06:25:36;;;;;;;5.73;5.33;;;21.10;47.20;;;;;;4803319;29;20506;-79
2021/07/16 06:28:04;;;;;;;5.93;5.27;;;21.00;47.10;;;;;;4806786;29;21038;-79
2021/07/16 06:30:50;;;;;;;6.43;5.27;;;21.10;47.30;;;;;;4794531;29;20575;-81
2021/07/16 06:33:48;;;;;;;7.20;5.90;;;21.00;47.30;;;;;;4804632;29;20453;-81
2021/07/16 06:36:44;;;;;;;7.00;6.40;;;21.00;47.20;;;;;;4806279;29;20441;-81
2021/07/16 06:39:39;;;;;;;7.10;5.70;;;21.00;47.40;;;;;;4807011;29;20997;-82
2021/07/16 06:42:08;;;;;;;6.00;5.60;;;21.00;47.50;;;;;;4810356;29;20873;-79
2021/07/16 06:44:45;;;;;;;5.90;5.50;;;20.90;47.80;;;;;;4806472;29;20430;-80
2021/07/16 06:47:50;;;;;;;6.73;6.07;;;20.90;47.90;;;;;;4806413;29;20461;-82
2021/07/16 06:50:26;;;;;;;7.97;5.50;;;20.90;47.80;;;;;;4806145;29;20465;-80
2021/07/16 06:53:05;;;;;;;5.73;5.30;;;20.90;47.90;;;;;;4805969;29;20433;-82
2021/07/16 06:55:38;;;;;;;6.73;6.13;;;21.00;48.00;;;;;;4806485;29;20934;-78
2021/07/16 06:58:32;;;;;;;6.50;6.00;;;20.90;48.00;;;;;;4807766;29;20457;-81
2021/07/16 07:01:05;;;;;;;6.77;6.17;;;21.00;48.10;;;;;;4807271;29;20422;-80
2021/07/16 07:03:31;;;;;;;5.77;5.30;;;21.00;48.70;;;;;;4791206;29;20462;-80
2021/07/16 07:06:06;;;;;;;8.23;5.60;;;21.00;48.00;;;;;;4804982;29;20473;-79
2021/07/16 07:08:56;;;;;;;6.20;5.80;;;21.00;47.70;;;;;;4806651;29;20964;-78
2021/07/16 07:11:36;;;;;;;5.80;5.30;;;21.00;47.90;;;;;;4806682;29;20426;-78
2021/07/16 07:14:30;;;;;;;5.77;5.37;;;21.00;47.80;;;;;;4787540;29;20421;-80
2021/07/16 07:17:46;;;;;;;;;;;;;;;;;;;;;
2021/07/16 07:21:17;;;;;;;6.60;6.10;;;21.00;47.70;;;;;;4775058;29;20994;-79
2021/07/16 07:23:52;;;;;;;5.70;5.30;;;21.00;47.70;;;;;;4769735;29;20513;-79
2021/07/16 07:26:20;;;;;;;5.97;5.43;;;21.00;47.60;;;;;;4807040;29;20477;-80
2021/07/16 07:29:37;;;;;;;5.33;4.93;;;21.00;47.60;;;;;;4806694;29;20458;-80
2021/07/16 07:36:51;;;;;;;5.33;4.90;;;21.00;47.50;;;;;;4768523;30;20519;-79
2021/07/16 07:39:35;;;;;;;;;;;;;;;;;;;;;
2021/07/16 07:43:18;;;;;;;4.83;4.53;;;20.90;47.20;;;;;;4769047;30;20421;-80
2021/07/16 07:46:22;;;;;;;5.57;5.20;;;21.00;47.40;;;;;;4749723;30;20471;-80
2021/07/16 07:49:14;;;;;;;6.47;5.50;;;21.00;47.30;;;;;;4738632;30;20503;-80
2021/07/16 07:52:18;;;;;;;;;;;;;;;;;;;;;
2021/07/16 07:54:52;;;;;;;4.90;4.63;;;21.00;47.20;;;;;;4772774;30;20817;-80
2021/07/16 08:00:44;;;;;;;4.77;4.37;;;20.90;47.10;;;;;;4774781;30;20811;-79
2021/07/16 08:03:14;;;;;;;5.27;4.87;;;20.90;47.10;;;;;;4784516;29;20544;-80
2021/07/16 08:05:50;;;;;;;4.93;4.47;;;20.90;47.10;;;;;;4794518;29;20478;-80
2021/07/16 08:08:25;;;;;;;5.60;5.10;;;21.00;47.10;;;;;;4795692;29;20445;-79
2021/07/16 08:11:24;;;;;;;5.37;5.03;;;20.90;47.10;;;;;;4834186;29;20451;-80
2021/07/16 08:14:20;;;;;;;5.60;5.20;;;20.90;47.10;;;;;;4848080;29;20428;-79
2021/07/16 08:20:45;;;;;;;4.83;4.53;;;20.90;47.00;;;;;;4791019;29;20808;-80
2021/07/16 08:23:22;;;;;;;5.23;4.93;;;21.00;47.10;;;;;;4791255;30;20439;-79
2021/07/16 08:25:51;;;;;;;5.10;4.80;;;20.90;47.00;;;;;;4794987;29;20470;-80
2021/07/16 08:28:17;;;;;;;5.10;4.80;;;20.90;47.00;;;;;;4793947;29;20576;-79
2021/07/16 08:30:53;;;;;;;6.03;5.60;;;20.90;46.90;;;;;;4821910;29;20432;-80
2021/07/16 08:33:29;;;;;;;4.73;4.43;;;20.90;46.90;;;;;;4832937;29;20203;-81
2021/07/16 08:35:57;;;;;;;4.47;4.20;;;21.00;47.00;;;;;;4831476;29;20436;-80
2021/07/16 08:38:40;;;;;;;4.80;4.50;;;20.90;46.80;;;;;;4843573;29;20478;-81
2021/07/16 08:41:44;;;;;;;5.10;4.80;;;21.00;46.90;;;;;;4845178;29;20432;-79
2021/07/16 08:44:35;;;;;;;6.10;5.30;;;20.90;46.80;;;;;;4830995;29;20498;-78
2021/07/16 08:47:31;;;;;;;5.43;5.13;;;21.00;46.80;;;;;;4828711;29;20469;-79
2021/07/16 08:50:27;;;;;;;4.90;4.60;;;21.00;46.80;;;;;;4827774;29;20437;-78
2021/07/16 08:53:02;;;;;;;5.03;4.73;;;21.00;46.80;;;;;;4806995;29;20839;-79
2021/07/16 08:55:57;;;;;;;5.07;4.77;;;20.90;46.70;;;;;;4804123;29;20427;-78
2021/07/16 09:02:04;;;;;;;5.03;4.73;;;21.00;46.60;;;;;;4808604;29;20430;-79
2021/07/16 09:08:43;;;;;;;4.93;4.63;;;20.90;46.50;;;;;;4826722;29;21046;-79
2021/07/16 09:11:37;;;;;;;4.70;4.40;;;21.00;46.60;;;;;;4838592;29;20440;-80
2021/07/16 09:14:21;;;;;;;5.10;4.80;;;21.00;46.50;;;;;;4830773;29;20441;-80
2021/07/16 09:17:55;;;;;;;4.27;4.07;;;20.90;46.50;;;;;;4844665;29;20440;-80
2021/07/16 09:20:22;;;;;;;4.90;4.70;;;21.00;46.60;;;;;;4838869;29;20857;-80
2021/07/16 09:23:19;;;;;;;5.10;4.90;;;21.00;46.50;;;;;;4844117;29;20425;-79
2021/07/16 09:26:23;;;;;;;4.77;4.57;;;20.90;46.50;;;;;;4844292;29;20471;-80
2021/07/16 09:28:56;;;;;;;4.67;4.47;;;20.90;46.40;;;;;;4845058;29;20444;-80
2021/07/16 09:31:39;;;;;;;;;;;;;;;;;;;;;
2021/07/16 09:34:08;;;;;;;5.37;5.07;;;20.90;46.50;;;;;;4845830;29;20535;-80
2021/07/16 09:36:38;;;;;;;5.93;5.20;;;21.00;46.50;;;;;;4844370;29;20520;-80
2021/07/16 09:39:25;;;;;;;5.40;5.10;;;21.00;46.50;;;;;;4832887;29;20449;-80
2021/07/16 09:42:03;;;;;;;5.03;4.80;;;21.00;46.50;;;;;;4826002;29;20482;-80
2021/07/16 09:44:38;;;;;;;5.23;4.97;;;21.00;46.40;;;;;;4825851;29;20440;-81
2021/07/16 09:47:18;;;;;;;5.60;5.20;;;21.00;46.40;;;;;;4825227;29;21053;-80
2021/07/16 09:49:47;;;;;;;5.00;4.70;;;21.00;46.40;;;;;;4824577;29;20466;-80
2021/07/16 09:52:16;;;;;;;4.70;4.50;;;21.00;46.40;;;;;;4826135;29;20417;-81
2021/07/16 09:55:18;;;;;;;5.83;5.53;;;21.00;46.30;;;;;;4826095;29;20836;-81
2021/07/16 09:57:49;;;;;;;4.83;4.60;;;21.00;46.30;;;;;;4825766;29;20437;-80
2021/07/16 10:00:23;;;;;;;4.90;4.60;;;21.00;46.30;;;;;;4825726;29;20456;-80
2021/07/16 10:02:51;;;;;;;6.07;4.80;;;21.00;46.20;;;;;;4825688;29;20420;-80
2021/07/16 10:05:19;;;;;;;5.00;4.70;;;21.00;46.20;;;;;;4824864;29;20464;-81
2021/07/16 10:07:45;;;;;;;4.97;4.77;;;21.00;46.20;;;;;;4825769;29;20948;-80
2021/07/16 10:10:17;;;;;;;4.50;4.30;;;21.00;46.20;;;;;;4824375;29;20451;-81
2021/07/16 10:12:45;;;;;;;4.43;4.23;;;21.00;46.20;;;;;;4825455;29;20469;-80
2021/07/16 10:15:12;;;;;;;5.40;5.10;;;21.00;46.10;;;;;;4824075;29;20451;-80
2021/07/16 10:18:07;;;;;;;4.53;4.33;;;21.10;46.20;;;;;;4824916;29;20449;-80
2021/07/16 10:24:23;;;;;;;4.07;3.87;;;21.00;46.00;;;;;;4768025;30;20515;-81
2021/07/16 10:26:50;;;;;;;4.27;4.07;;;21.00;46.00;;;;;;4753545;30;20475;-80
2021/07/16 10:33:50;;;;;;;;;;;;;;;;;;;;;
2021/07/16 11:25:15;;;;;;;5.30;5.00;;;21.10;45.60;;;;;;4887721;23;20492;-78
2021/07/16 11:31:25;;;;;;;5.40;5.10;;;21.10;45.60;;;;;;4806036;29;20435;-79
2021/07/16 11:38:14;;;;;;;4.50;4.30;;;21.10;45.60;;;;;;4785310;29;20442;-80
2021/07/16 11:42:02;;;;;;;4.57;4.37;;;21.10;45.60;;;;;;4784069;29;20462;-80
2021/07/16 11:52:26;;;;;;;4.03;3.83;;;21.10;45.50;;;;;;4800983;29;20944;-81
2021/07/16 11:56:05;;;;;;;4.60;4.40;;;21.10;45.50;;;;;;4768727;30;20424;-80
2021/07/16 12:06:44;;;;;;;4.43;4.03;;;21.10;45.40;;;;;;4683396;30;21082;-80
2021/07/16 12:09:56;;;;;;;4.63;4.43;;;21.10;45.50;;;;;;4688344;30;20433;-81
2021/07/16 12:32:15;;;;;;;3.90;3.70;;;21.10;45.10;;;;;;1190265;23;20843;-79
2021/07/16 12:35:09;;;;;;;3.70;3.60;;;21.10;45.30;;;;;;4824174;29;20521;-79
2021/07/16 12:37:40;;;;;;;4.20;4.00;;;21.20;45.40;;;;;;4824564;29;21040;-79
2021/07/16 12:40:28;;;;;;;4.27;4.07;;;21.30;45.20;;;;;;4811879;29;20425;-79
2021/07/16 12:43:42;;;;;;;;;;;;;;;;;;;;;
2021/07/16 12:46:49;;;;;;;4.03;3.73;;;21.40;45.00;;;;;;4828126;29;20855;-79
2021/07/16 12:49:41;;;;;;;3.90;3.70;;;21.40;44.90;;;;;;4828804;29;20425;-79
2021/07/16 12:59:57;;;;;;;;;;;;;;;;;;;;;
2021/07/16 13:11:11;;;;;;;;;;;;;;;;;;;;;
2021/07/16 13:14:21;;;;;;;3.90;3.70;;;21.40;44.00;;;;;;4652592;30;20440;-79
2021/07/16 13:22:05;;;;;;;;;;;;;;;;;;;;;
2021/07/16 13:25:06;;;;;;;4.20;3.90;;;21.40;44.50;;;;;;4666292;30;20421;-79
2021/07/16 13:28:28;;;;;;;7.20;4.70;;;21.40;44.00;;;;;;4665515;30;20909;-79
2021/07/16 13:31:37;;;;;;;4.13;3.83;;;21.50;44.00;;;;;;4679307;30;20440;-80
2021/07/16 13:34:34;;;;;;;3.77;3.50;;;21.50;44.00;;;;;;4683241;30;20552;-79
2021/07/16 13:37:08;;;;;;;4.60;3.40;;;21.50;44.30;;;;;;4681396;30;20469;-79
2021/07/16 13:39:59;;;;;;;4.27;3.97;;;21.50;43.90;;;;;;4666762;30;20449;-79
2021/07/16 13:42:32;;;;;;;3.17;3.07;;;21.50;44.00;;;;;;4680561;30;20841;-79
2021/07/16 13:45:12;;;;;;;4.00;3.80;;;21.50;44.40;;;;;;4719774;30;20491;-79
2021/07/16 13:48:04;;;;;;;3.70;3.50;;;21.50;43.80;;;;;;4783516;29;20455;-79
2021/07/16 13:51:04;;;;;;;4.20;3.90;;;21.50;44.00;;;;;;4827393;29;20425;-79
2021/07/16 13:54:12;;;;;;;3.93;3.70;;;21.50;44.00;;;;;;4828321;29;20421;-81
2021/07/16 13:56:54;;;;;;;3.27;3.13;;;21.50;43.50;;;;;;4826032;29;20464;-79
2021/07/16 13:59:39;;;;;;;3.10;3.00;;;21.60;42.70;;;;;;4824012;29;20425;-79
2021/07/16 14:02:06;;;;;;;3.47;3.27;;;21.60;43.20;;;;;;4825728;29;20421;-79
2021/07/16 14:05:13;;;;;;;3.60;3.40;;;21.60;44.00;;;;;;4823030;29;20214;-80
2021/07/16 14:07:41;;;;;;;3.53;3.33;;;21.60;42.70;;;;;;4822807;29;20467;-79
2021/07/16 14:10:09;;;;;;;3.00;2.90;;;21.60;42.60;;;;;;4825112;29;20906;-80
2021/07/16 14:12:41;;;;;;;2.80;2.70;;;21.60;43.60;;;;;;4825751;29;20418;-80
2021/07/16 14:15:09;;;;;;;3.20;3.07;;;21.60;43.30;;;;;;4824737;29;20425;-78
2021/07/16 14:17:51;;;;;;;3.83;3.60;;;21.60;42.60;;;;;;4824495;29;20797;-78
2021/07/16 14:20:23;;;;;;;3.57;3.37;;;21.60;43.10;;;;;;4816848;29;20425;-81
2021/07/16 14:23:32;;;;;;;3.70;3.50;;;21.60;43.30;;;;;;4823109;29;20785;-82
2021/07/16 14:26:54;;;;;;;3.50;3.30;;;21.60;43.60;;;;;;4768242;30;20474;-80
2021/07/16 14:29:36;;;;;;;3.40;3.20;;;21.60;43.10;;;;;;4771036;30;20930;-79
2021/07/16 14:32:23;;;;;;;3.27;3.13;;;21.60;42.10;;;;;;4800404;29;20488;-79
2021/07/16 14:35:59;;;;;;;3.40;3.30;;;21.60;42.50;;;;;;4787637;29;20419;-81
2021/07/16 14:39:24;;;;;;;3.77;3.57;;;21.60;42.70;;;;;;4785769;29;20533;-82
2021/07/16 14:42:03;;;;;;;3.33;3.23;;;21.60;42.90;;;;;;4801754;29;20969;-80
2021/07/16 14:44:34;;;;;;;3.73;3.53;;;21.60;41.70;;;;;;4788291;29;20426;-79
2021/07/16 14:47:00;;;;;;;3.47;3.33;;;21.60;42.30;;;;;;4820740;29;20476;-78
2021/07/16 14:49:43;;;;;;;3.73;3.53;;;21.60;41.70;;;;;;4824654;29;20433;-78
2021/07/16 14:52:46;;;;;;;3.57;3.37;;;21.60;42.30;;;;;;4824348;29;20504;-82
2021/07/16 14:55:25;;;;;;;3.20;3.10;;;21.60;43.30;;;;;;4826712;29;20428;-80
2021/07/16 14:57:56;;;;;;;4.50;3.57;;;21.60;42.80;;;;;;4827477;29;20536;-81
2021/07/16 15:00:57;;;;;;;3.60;3.40;;;21.60;42.70;;;;;;4827253;29;20469;-82
2021/07/16 15:07:04;;;;;;;4.90;3.43;;;21.60;42.90;;;;;;4812013;29;20523;-81
2021/07/16 15:09:36;;;;;;;3.97;3.67;;;21.60;42.90;;;;;;4825200;29;20925;-82
2021/07/16 15:12:12;;;;;;;3.33;3.13;;;21.60;42.70;;;;;;4824859;29;20429;-81
2021/07/16 15:15:06;;;;;;;3.83;3.33;;;21.60;42.90;;;;;;4816148;29;20437;-81
2021/07/16 15:17:32;;;;;;;3.73;3.50;;;21.60;43.00;;;;;;4825819;29;20547;-82
2021/07/16 15:20:53;;;;;;;5.47;3.90;;;21.60;43.10;;;;;;4825847;29;20429;-82
2021/07/16 15:23:21;;;;;;;3.30;3.10;;;21.60;43.10;;;;;;4826418;29;20526;-82
2021/07/16 15:25:46;;;;;;;3.87;3.67;;;21.60;43.10;;;;;;4809635;29;20469;-81
2021/07/16 15:28:13;;;;;;;3.47;3.27;;;21.60;43.10;;;;;;4827428;29;20440;-83
2021/07/16 15:30:39;;;;;;;3.27;3.10;;;21.60;43.10;;;;;;4828061;29;20220;-82
2021/07/16 15:33:06;;;;;;;3.20;3.00;;;21.60;43.20;;;;;;4831647;29;20865;-85
2021/07/16 15:35:31;;;;;;;3.20;3.00;;;21.60;43.40;;;;;;4830407;29;20429;-81
2021/07/16 15:37:57;;;;;;;3.93;3.60;;;21.60;43.30;;;;;;4831000;29;20452;-82
2021/07/16 15:40:27;;;;;;;3.10;3.00;;;21.60;43.40;;;;;;4830675;29;20232;-83
2021/07/16 15:42:52;;;;;;;3.40;3.20;;;21.60;43.40;;;;;;4829441;29;20443;-82
2021/07/16 15:45:18;;;;;;;3.93;3.73;;;21.60;43.40;;;;;;4830348;29;20421;-80
2021/07/16 15:47:43;;;;;;;3.33;3.13;;;21.60;43.60;;;;;;4829937;29;20637;-82
2021/07/16 15:50:14;;;;;;;3.97;3.73;;;21.60;43.60;;;;;;4829701;29;20180;-82
2021/07/16 15:52:40;;;;;;;3.20;3.07;;;21.60;43.50;;;;;;4830864;29;20175;-82
2021/07/16 15:55:08;;;;;;;3.13;3.03;;;21.60;43.90;;;;;;4830553;29;20420;-80
2021/07/16 15:57:34;;;;;;;4.03;3.70;;;21.60;43.60;;;;;;4830542;29;20444;-82
2021/07/16 16:00:00;;;;;;;3.30;3.20;;;21.60;43.50;;;;;;4829465;29;20796;-80
2021/07/16 16:02:28;;;;;;;3.77;3.57;;;21.60;43.70;;;;;;4829772;29;20420;-80
2021/07/16 16:04:56;;;;;;;3.93;3.73;;;21.60;43.90;;;;;;4830343;29;20176;-81
2021/07/16 16:07:22;;;;;;;3.87;3.67;;;21.60;43.70;;;;;;4830922;29;20476;-81
2021/07/16 16:09:48;;;;;;;3.93;3.63;;;21.60;43.60;;;;;;4829956;29;20493;-81
2021/07/16 16:12:14;;;;;;;4.37;3.67;;;21.60;43.90;;;;;;4829996;29;20447;-81
2021/07/16 16:14:40;;;;;;;3.67;3.40;;;21.70;44.00;;;;;;4829640;29;20838;-80
2021/07/16 16:17:06;;;;;;;3.63;3.33;;;21.70;43.90;;;;;;4830279;29;20567;-82
2021/07/16 16:19:31;;;;;;;4.07;3.70;;;21.70;43.90;;;;;;4829316;29;20188;-80
2021/07/16 16:21:57;;;;;;;3.47;3.37;;;21.70;43.90;;;;;;4829573;29;20807;-81
2021/07/16 16:24:23;;;;;;;3.13;2.93;;;21.70;43.90;;;;;;4828908;29;20184;-80
2021/07/16 16:26:49;;;;;;;3.20;3.00;;;21.70;43.80;;;;;;4827875;29;20215;-80
2021/07/16 16:29:15;;;;;;;2.97;2.83;;;21.70;43.70;;;;;;4828778;29;20420;-82
2021/07/16 16:31:41;;;;;;;2.87;2.77;;;21.70;43.60;;;;;;4815961;29;20478;-81
2021/07/16 16:34:06;;;;;;;3.40;3.20;;;21.70;43.60;;;;;;4810572;29;20668;-81
2021/07/16 16:36:32;;;;;;;3.40;3.20;;;21.70;43.70;;;;;;4809598;29;20311;-80
2021/07/16 16:38:58;;;;;;;3.10;2.90;;;21.70;43.40;;;;;;4811217;29;20236;-82
2021/07/16 16:41:24;;;;;;;2.93;2.73;;;21.70;43.10;;;;;;4809341;29;20193;-81
2021/07/16 16:43:49;;;;;;;3.37;3.17;;;21.70;43.20;;;;;;4810503;29;20559;-79
2021/07/16 16:46:15;;;;;;;3.33;3.13;;;21.70;42.90;;;;;;4810500;29;20550;-80
2021/07/16 16:48:43;;;;;;;2.70;2.60;;;21.70;42.50;;;;;;4810454;29;20197;-82
2021/07/16 16:51:09;;;;;;;2.73;2.63;;;21.70;42.70;;;;;;4809725;29;20181;-82
2021/07/16 16:53:35;;;;;;;3.57;3.37;;;21.70;42.50;;;;;;4809620;29;20430;-83
2021/07/16 16:56:00;;;;;;;3.53;3.33;;;21.70;42.60;;;;;;4810411;29;20189;-79
2021/07/16 16:58:26;;;;;;;4.40;3.20;;;21.70;42.70;;;;;;4809522;29;20217;-80
2021/07/16 17:00:51;;;;;;;3.40;3.30;;;21.70;42.90;;;;;;4809151;29;20295;-81
2021/07/16 17:03:18;;;;;;;3.30;3.13;;;21.70;43.00;;;;;;4809373;29;20195;-80
2021/07/16 17:05:44;;;;;;;3.67;3.43;;;21.70;43.10;;;;;;4809960;29;20204;-79
2021/07/16 17:08:10;;;;;;;3.60;3.40;;;21.70;43.10;;;;;;4809877;29;20446;-80
2021/07/16 17:10:36;;;;;;;3.30;3.13;;;21.70;43.10;;;;;;4809280;29;20827;-82
2021/07/16 17:13:02;;;;;;;3.20;3.10;;;21.70;43.20;;;;;;4809334;29;20199;-80
2021/07/16 17:15:27;;;;;;;3.10;2.90;;;21.70;43.30;;;;;;4808133;29;20192;-80
2021/07/16 17:17:53;;;;;;;3.60;3.40;;;21.70;43.30;;;;;;4809443;29;20442;-80
2021/07/16 17:20:22;;;;;;;3.50;3.30;;;21.70;43.30;;;;;;4809423;29;20188;-79
2021/07/16 17:22:47;;;;;;;3.50;3.40;;;21.70;43.40;;;;;;4809352;29;20177;-80
2021/07/16 17:25:13;;;;;;;3.10;3.00;;;21.70;43.40;;;;;;4808790;29;20560;-79
2021/07/16 17:27:40;;;;;;;3.37;3.17;;;21.70;43.50;;;;;;4809314;29;20203;-79
2021/07/16 17:30:09;;;;;;;3.60;3.40;;;21.70;43.50;;;;;;4809149;29;20410;-80
2021/07/16 17:32:36;;;;;;;3.73;3.53;;;21.70;43.50;;;;;;4808370;29;20788;-79
2021/07/16 17:35:01;;;;;;;3.50;3.33;;;21.70;43.50;;;;;;4807852;29;20418;-80
2021/07/16 17:37:33;;;;;;;3.87;3.63;;;21.70;43.50;;;;;;4806271;29;20458;-79
2021/07/16 17:39:58;;;;;;;4.40;4.00;;;21.70;43.50;;;;;;4809385;29;20236;-79
2021/07/16 17:42:24;;;;;;;4.50;3.63;;;21.70;43.50;;;;;;4825983;29;20426;-80
2021/07/16 17:44:49;;;;;;;3.90;3.70;;;21.70;43.70;;;;;;4816154;29;20599;-79
2021/07/16 17:47:15;;;;;;;4.27;3.97;;;21.70;44.20;;;;;;4809916;29;20220;-79
2021/07/16 17:49:40;;;;;;;3.90;3.70;;;21.70;44.50;;;;;;4806849;29;20221;-79
2021/07/16 17:52:06;;;;;;;4.60;4.30;;;21.80;44.20;;;;;;4806633;29;20241;-80
2021/07/16 17:54:32;;;;;;;4.30;4.10;;;21.80;45.20;;;;;;4804917;29;20328;-79
2021/07/16 17:56:58;;;;;;;5.53;5.13;;;21.80;44.70;;;;;;4806205;29;20268;-79
2021/07/16 17:59:24;;;;;;;5.03;4.73;;;21.80;44.60;;;;;;4804814;29;20563;-79
2021/07/16 18:01:49;;;;;;;5.23;4.93;;;21.80;44.60;;;;;;4806034;29;20236;-79
2021/07/16 18:04:15;;;;;;;5.30;4.90;;;21.80;45.00;;;;;;4806461;29;20177;-81
2021/07/16 18:06:40;;;;;;;5.57;5.17;;;21.80;45.90;;;;;;4808206;29;20581;-79
2021/07/16 18:09:06;;;;;;;5.87;5.37;;;21.80;45.20;;;;;;4813248;29;20205;-80
2021/07/16 18:11:33;;;;;;;6.03;5.63;;;21.80;45.30;;;;;;4813398;29;20214;-81
2021/07/16 18:13:58;;;;;;;6.00;5.60;;;21.80;45.30;;;;;;4811813;29;20177;-80
2021/07/16 18:16:24;;;;;;;6.57;6.17;;;21.80;45.70;;;;;;4810243;29;20945;-81
2021/07/16 18:18:49;;;;;;;6.13;5.67;;;21.80;46.40;;;;;;4809289;29;20205;-81
2021/07/16 18:21:18;;;;;;;5.70;5.30;;;21.80;45.80;;;;;;4809550;29;20232;-80
2021/07/16 18:23:44;;;;;;;6.60;6.20;;;21.80;45.90;;;;;;4810013;29;20177;-81
2021/07/16 18:26:10;;;;;;;6.90;6.40;;;21.80;46.00;;;;;;4807296;29;20485;-81
2021/07/16 18:28:35;;;;;;;6.33;5.93;;;21.80;46.00;;;;;;4809208;29;20452;-80
2021/07/16 18:31:01;;;;;;;7.50;7.00;;;21.80;46.00;;;;;;4820103;29;20424;-80
2021/07/16 18:33:27;;;;;;;7.13;6.53;;;21.80;45.90;;;;;;4827905;29;20183;-81
2021/07/16 18:35:53;;;;;;;6.77;6.27;;;21.80;47.50;;;;;;4826342;29;20430;-81
2021/07/16 18:38:23;;;;;;;7.43;7.00;;;21.80;46.10;;;;;;4827959;29;20961;-81
2021/07/16 18:40:49;;;;;;;7.40;7.00;;;21.80;46.10;;;;;;4826155;29;20796;-80
2021/07/16 18:43:16;;;;;;;8.10;7.47;;;21.80;46.30;;;;;;4826035;29;20433;-79
2021/07/16 18:45:41;;;;;;;8.60;7.93;;;21.80;47.20;;;;;;4826573;29;20491;-79
2021/07/16 18:48:07;;;;;;;7.60;7.10;;;21.80;47.70;;;;;;4826650;29;20449;-80
2021/07/16 18:50:32;;;;;;;7.90;7.30;;;21.80;46.80;;;;;;4826042;29;20204;-81
2021/07/16 18:52:58;;;;;;;8.03;7.53;;;21.80;47.10;;;;;;4828295;29;20177;-81
2021/07/16 18:55:24;;;;;;;7.83;7.33;;;21.80;47.00;;;;;;4826467;29;20192;-81
2021/07/16 18:57:49;;;;;;;8.63;7.97;;;21.80;46.80;;;;;;4827327;29;20200;-81
2021/07/16 19:00:18;;;;;;;8.57;7.90;;;21.80;48.30;;;;;;4826304;29;20184;-81
2021/07/16 19:02:44;;;;;;;8.67;8.07;;;21.80;48.20;;;;;;4826074;29;20204;-80
2021/07/16 19:05:10;;;;;;;8.30;7.80;;;21.80;47.70;;;;;;4826867;29;20992;-80
2021/07/16 19:07:36;;;;;;;9.27;8.37;;;21.80;47.30;;;;;;4830456;29;20473;-79
2021/07/16 19:10:04;;;;;;;9.17;8.37;;;21.80;47.30;;;;;;4831693;29;20585;-80
2021/07/16 19:12:32;;;;;;;9.27;8.57;;;21.80;47.60;;;;;;4832134;29;20656;-80
2021/07/16 19:14:58;;;;;;;11.50;8.53;;;21.80;48.20;;;;;;4832106;29;20925;-81
2021/07/16 19:17:24;;;;;;;8.47;7.97;;;21.80;47.70;;;;;;4830654;29;20445;-80
2021/07/16 19:19:50;;;;;;;9.37;8.57;;;21.80;48.00;;;;;;4831017;29;20887;-80
2021/07/16 19:22:16;;;;;;;9.40;8.50;;;21.80;48.70;;;;;;4829390;29;20433;-81
2021/07/16 19:24:43;;;;;;;9.10;8.40;;;21.80;48.40;;;;;;4830278;29;20437;-78
2021/07/16 19:27:09;;;;;;;9.00;8.13;;;21.80;48.60;;;;;;4829496;29;20219;-81
2021/07/16 19:29:35;;;;;;;8.23;7.70;;;21.80;48.60;;;;;;4781741;29;20470;-79
2021/07/16 19:32:04;;;;;;;8.17;7.67;;;21.80;48.70;;;;;;4830055;29;20418;-79
2021/07/16 19:34:30;;;;;;;9.90;9.13;;;21.80;48.80;;;;;;4827847;29;20188;-79
2021/07/16 19:36:55;;;;;;;8.50;7.90;;;21.80;48.80;;;;;;4828974;29;20440;-81
2021/07/16 19:39:21;;;;;;;8.57;7.97;;;21.80;48.80;;;;;;4828189;29;20219;-78
2021/07/16 19:41:47;;;;;;;9.83;8.70;;;21.80;49.20;;;;;;4828687;29;20199;-81
2021/07/16 19:44:12;;;;;;;71.70;15.23;;;21.80;49.30;;;;;;4831536;29;20176;-81
2021/07/16 19:46:38;;;;;;;130.47;22.40;;;21.80;50.20;;;;;;4830123;29;20237;-81
2021/07/16 19:49:03;;;;;;;65.27;16.50;;;21.80;49.30;;;;;;4830558;29;20770;-81
2021/07/16 19:51:29;;;;;;;70.70;15.87;;;21.80;51.00;;;;;;4830828;29;20640;-83
2021/07/16 19:53:55;;;;;;;42.97;14.17;;;21.80;51.10;;;;;;4831025;29;20176;-80
2021/07/16 19:56:23;;;;;;;63.03;13.80;;;21.80;51.10;;;;;;4829874;29;20645;-82
2021/07/16 19:58:49;;;;;;;45.13;13.43;;;21.80;50.70;;;;;;4829137;29;20208;-83
2021/07/16 20:01:17;;;;;;;31.00;12.60;;;21.80;51.70;;;;;;4829844;29;20417;-80
2021/07/16 20:03:43;;;;;;;27.23;11.57;;;21.80;52.00;;;;;;4827875;29;20188;-82
2021/07/16 20:06:09;;;;;;;27.13;12.20;;;21.80;52.00;;;;;;4828616;29;20551;-81
2021/07/16 20:08:36;;;;;;;22.97;10.93;;;21.80;52.00;;;;;;4828852;29;20203;-80
2021/07/16 20:11:02;;;;;;;21.33;10.50;;;21.80;51.40;;;;;;4829706;29;20455;-81
2021/07/16 20:13:31;;;;;;;33.67;10.93;;;21.80;52.00;;;;;;4829797;29;20428;-83
2021/07/16 20:15:56;;;;;;;18.70;10.17;;;21.80;52.00;;;;;;4827487;29;20444;-79
2021/07/16 20:18:22;;;;;;;19.80;9.80;;;21.80;52.00;;;;;;4828613;29;20817;-79
2021/07/16 20:20:48;;;;;;;19.83;11.33;;;21.80;51.30;;;;;;4828740;29;20553;-81
2021/07/16 20:23:15;;;;;;;18.60;9.77;;;21.80;51.90;;;;;;4828006;29;20797;-84
2021/07/16 20:25:40;;;;;;;10.73;9.50;;;21.80;51.20;;;;;;4828739;29;20477;-80
2021/07/16 20:28:06;;;;;;;14.60;9.57;;;21.80;51.70;;;;;;4827224;29;20445;-82
2021/07/16 20:30:33;;;;;;;14.73;9.87;;;21.80;51.50;;;;;;4826206;29;20180;-80
2021/07/16 20:32:59;;;;;;;11.37;10.20;;;21.80;52.00;;;;;;4828439;29;20211;-78
2021/07/16 20:35:25;;;;;;;11.27;9.20;;;21.80;52.00;;;;;;4826961;29;20437;-82
2021/07/16 20:37:50;;;;;;;12.93;9.30;;;21.80;52.00;;;;;;4828476;29;20445;-81
2021/07/16 20:40:17;;;;;;;12.07;9.40;;;21.80;53.80;;;;;;4828111;29;20688;-82
2021/07/16 20:42:43;;;;;;;9.97;9.00;;;21.80;54.40;;;;;;4828521;29;20222;-80